createdAt,value
2023-04-26T00:02:15.755Z,95.00
2023-04-26T00:04:43.620Z,95.00
2023-04-26T00:07:13.465Z,95.00
2023-04-26T00:09:44.291Z,94.90
2023-04-26T00:12:12.666Z,95.00
2023-04-26T00:14:40.428Z,94.90
2023-04-26T00:17:08.222Z,95.00
2023-04-26T00:19:37.222Z,95.00
2023-04-26T00:22:06.413Z,95.20
2023-04-26T00:24:34.313Z,95.20
2023-04-26T00:27:05.233Z,95.10
2023-04-26T00:29:32.952Z,95.10
2023-04-26T00:32:01.034Z,95.20
2023-04-26T00:34:33.241Z,95.30
2023-04-26T00:37:03.827Z,95.40
2023-04-26T00:39:32.441Z,95.40
2023-04-26T00:42:00.340Z,95.00
2023-04-26T00:44:28.093Z,94.60
2023-04-26T00:46:56.218Z,94.60
2023-04-26T00:49:25.802Z,94.90
2023-04-26T00:52:03.782Z,95.20
2023-04-26T00:54:31.797Z,95.30
2023-04-26T00:57:00.541Z,95.40
2023-04-26T00:59:28.478Z,95.50
2023-04-26T01:01:57.526Z,95.50
2023-04-26T01:04:27.290Z,95.40
2023-04-26T01:06:55.968Z,95.40
2023-04-26T01:09:24.998Z,95.30
2023-04-26T01:11:53.514Z,95.00
2023-04-26T01:14:21.985Z,95.00
2023-04-26T01:16:50.842Z,95.10
2023-04-26T01:19:18.671Z,95.10
2023-04-26T01:21:46.643Z,95.00
2023-04-26T01:24:16.668Z,95.00
2023-04-26T01:26:46.488Z,95.00
2023-04-26T01:29:16.745Z,95.00
2023-04-26T01:31:44.671Z,95.10
2023-04-26T01:34:12.789Z,95.00
2023-04-26T01:36:41.204Z,95.10
2023-04-26T01:39:09.255Z,95.20
2023-04-26T01:41:38.470Z,94.50
2023-04-26T01:44:06.522Z,94.50
2023-04-26T01:46:35.712Z,94.70
2023-04-26T01:49:03.520Z,95.10
2023-04-26T01:51:31.292Z,95.40
2023-04-26T01:53:59.027Z,95.60
2023-04-26T01:56:26.908Z,95.50
2023-04-26T01:58:57.276Z,95.30
2023-04-26T02:01:25.394Z,95.40
2023-04-26T02:03:53.349Z,95.30
2023-04-26T02:06:21.436Z,95.40
2023-04-26T02:08:49.864Z,95.50
2023-04-26T02:11:17.798Z,95.60
2023-04-26T02:13:45.556Z,95.50
2023-04-26T02:16:16.029Z,95.40
2023-04-26T02:18:44.247Z,95.60
2023-04-26T02:21:12.900Z,95.60
2023-04-26T02:23:40.610Z,95.80
2023-04-26T02:26:11.518Z,95.60
2023-04-26T02:28:39.496Z,95.50
2023-04-26T02:31:07.313Z,95.00
2023-04-26T02:33:36.741Z,95.00
2023-04-26T02:36:05.802Z,95.20
2023-04-26T02:38:36.174Z,95.40
2023-04-26T02:41:05.822Z,95.50
2023-04-26T02:43:34.393Z,95.50
2023-04-26T02:46:02.306Z,95.10
2023-04-26T02:48:31.841Z,95.00
2023-04-26T02:51:01.324Z,95.10
2023-04-26T02:53:29.370Z,95.30
2023-04-26T02:55:57.076Z,95.40
2023-04-26T02:58:24.867Z,95.40
2023-04-26T03:00:54.380Z,95.50
2023-04-26T03:03:23.095Z,95.60
2023-04-26T03:05:51.153Z,95.60
2023-04-26T03:08:20.614Z,95.40
2023-04-26T03:10:48.354Z,95.20
2023-04-26T03:13:16.206Z,95.00
2023-04-26T03:15:46.222Z,95.10
2023-04-26T03:18:14.846Z,95.30
2023-04-26T03:20:43.436Z,95.60
2023-04-26T03:23:11.316Z,95.70
2023-04-26T03:25:40.791Z,95.60
2023-04-26T03:28:09.223Z,95.50
2023-04-26T03:30:37.328Z,95.70
2023-04-26T03:33:06.184Z,95.60
2023-04-26T03:35:33.954Z,95.60
2023-04-26T03:38:02.411Z,95.50
2023-04-26T03:40:30.180Z,95.20
2023-04-26T03:42:59.283Z,95.30
2023-04-26T03:45:27.641Z,95.50
2023-04-26T03:47:56.617Z,95.60
2023-04-26T03:50:24.466Z,95.70
2023-04-26T03:52:52.949Z,95.50
2023-04-26T03:55:21.295Z,95.40
2023-04-26T03:57:49.264Z,95.60
2023-04-26T04:00:22.444Z,95.60
2023-04-26T04:02:51.924Z,95.30
2023-04-26T04:05:25.330Z,95.40
2023-04-26T04:07:53.375Z,95.40
2023-04-26T04:10:23.008Z,95.40
2023-04-26T04:12:51.196Z,95.50
2023-04-26T04:15:21.081Z,95.40
2023-04-26T04:17:49.972Z,95.20
2023-04-26T04:20:18.502Z,95.30
2023-04-26T04:22:46.366Z,95.00
2023-04-26T04:25:14.562Z,94.80
2023-04-26T04:27:43.869Z,94.70
2023-04-26T04:30:12.759Z,95.00
2023-04-26T04:32:46.628Z,95.20
2023-04-26T04:35:16.945Z,95.00
2023-04-26T04:37:45.434Z,94.90
2023-04-26T04:40:15.672Z,94.80
2023-04-26T04:42:46.710Z,94.70
2023-04-26T04:45:19.451Z,94.60
2023-04-26T04:47:53.957Z,94.70
2023-04-26T04:50:23.284Z,94.70
2023-04-26T04:52:51.067Z,94.50
2023-04-26T04:55:19.191Z,94.20
2023-04-26T04:57:47.457Z,94.30
2023-04-26T05:00:16.168Z,94.60
2023-04-26T05:02:55.048Z,94.70
2023-04-26T05:05:24.330Z,94.60
2023-04-26T05:07:52.091Z,94.80
2023-04-26T05:10:21.427Z,95.10
2023-04-26T05:12:49.112Z,95.20
2023-04-26T05:15:17.400Z,95.40
2023-04-26T05:17:45.390Z,95.10
2023-04-26T05:20:19.516Z,95.10
2023-04-26T05:22:47.968Z,95.20
2023-04-26T05:25:17.050Z,95.40
2023-04-26T05:27:46.987Z,95.50
2023-04-26T05:30:34.660Z,95.80
2023-04-26T05:33:13.838Z,95.80
2023-04-26T05:35:50.818Z,95.70
2023-04-26T05:38:19.015Z,95.60
2023-04-26T05:40:48.128Z,95.10
2023-04-26T05:43:19.544Z,94.70
2023-04-26T05:45:55.230Z,94.20
2023-04-26T05:48:27.194Z,93.80
2023-04-26T05:50:56.217Z,93.70
2023-04-26T05:53:24.886Z,93.00
2023-04-26T05:55:53.309Z,92.70
2023-04-26T05:58:22.001Z,91.10
2023-04-26T06:00:54.083Z,90.20
2023-04-26T06:03:23.183Z,90.50
2023-04-26T06:05:51.208Z,90.40
2023-04-26T06:08:21.047Z,89.20
2023-04-26T06:10:51.212Z,87.50
2023-04-26T06:13:20.143Z,88.00
2023-04-26T06:15:49.681Z,85.50
2023-04-26T06:18:17.403Z,81.80
2023-04-26T06:20:50.791Z,79.20
2023-04-26T06:23:20.407Z,75.50
2023-04-26T06:25:48.246Z,71.90
2023-04-26T06:28:16.278Z,70.40
2023-04-26T06:30:44.104Z,67.60
2023-04-26T06:33:11.937Z,66.50
2023-04-26T06:35:41.331Z,64.40
2023-04-26T06:38:12.532Z,62.20
2023-04-26T06:40:41.585Z,59.40
2023-04-26T06:43:10.181Z,57.80
2023-04-26T06:45:44.972Z,57.70
2023-04-26T06:48:13.452Z,57.30
2023-04-26T06:50:41.645Z,58.00
2023-04-26T06:53:09.557Z,56.80
2023-04-26T06:55:37.364Z,55.20
2023-04-26T06:58:06.436Z,53.70
2023-04-26T07:00:34.210Z,51.20
2023-04-26T07:03:02.059Z,49.10
2023-04-26T07:05:34.986Z,52.60
2023-04-26T07:08:03.933Z,53.30
2023-04-26T07:10:32.094Z,51.90
2023-04-26T07:13:03.646Z,49.90
2023-04-26T07:15:33.022Z,49.20
2023-04-26T07:18:04.212Z,48.20
2023-04-26T07:20:32.033Z,48.00
2023-04-26T07:23:01.156Z,46.50
2023-04-26T07:25:28.871Z,47.90
2023-04-26T07:27:56.637Z,48.10
2023-04-26T07:34:07.510Z,51.10
2023-04-26T07:36:37.080Z,50.00
2023-04-26T07:39:06.576Z,49.50
2023-04-26T07:41:35.626Z,47.70
2023-04-26T07:44:04.333Z,46.40
2023-04-26T07:46:33.979Z,46.80
2023-04-26T07:49:02.450Z,46.10
2023-04-26T07:51:33.435Z,45.10
2023-04-26T07:54:01.901Z,44.10
2023-04-26T07:56:30.046Z,45.40
2023-04-26T07:58:58.756Z,41.50
2023-04-26T08:01:27.178Z,41.90
2023-04-26T08:03:56.678Z,45.00
2023-04-26T08:06:27.174Z,44.90
2023-04-26T08:08:56.896Z,44.50
2023-04-26T08:11:24.869Z,44.60
2023-04-26T08:13:53.162Z,43.00
2023-04-26T08:16:21.299Z,41.50
2023-04-26T08:18:49.907Z,40.30
2023-04-26T08:21:24.344Z,40.50
2023-04-26T08:24:02.096Z,38.10
2023-04-26T08:26:35.785Z,38.10
2023-04-26T08:29:09.393Z,35.50
2023-04-26T08:31:41.228Z,38.10
2023-04-26T08:34:13.567Z,38.10
2023-04-26T08:36:42.507Z,35.70
2023-04-26T08:39:12.421Z,37.50
2023-04-26T08:41:45.057Z,37.60
2023-04-26T08:44:16.406Z,38.90
2023-04-26T08:46:53.685Z,36.00
2023-04-26T08:49:33.791Z,36.70
2023-04-26T08:52:03.073Z,37.90
2023-04-26T08:54:33.429Z,36.20
2023-04-26T08:57:01.933Z,35.90
2023-04-26T08:59:32.151Z,40.60
2023-04-26T09:02:04.097Z,42.00
2023-04-26T09:04:34.702Z,42.70
2023-04-26T09:07:08.075Z,45.00
2023-04-26T09:09:44.118Z,44.80
2023-04-26T09:12:13.397Z,45.20
2023-04-26T09:14:44.165Z,46.80
2023-04-26T09:17:28.210Z,45.60
2023-04-26T09:19:56.606Z,46.50
2023-04-26T09:22:35.649Z,48.60
2023-04-26T09:25:08.296Z,47.20
2023-04-26T09:27:40.108Z,49.10
2023-04-26T09:30:12.304Z,48.30
2023-04-26T09:32:47.621Z,47.70
2023-04-26T09:35:25.789Z,49.20
2023-04-26T09:37:58.449Z,49.90
2023-04-26T09:40:31.756Z,50.60
2023-04-26T09:43:01.796Z,51.50
2023-04-26T09:45:31.679Z,47.70
2023-04-26T09:48:21.849Z,52.50
2023-04-26T09:50:54.668Z,47.50
2023-04-26T09:53:28.150Z,48.40
2023-04-26T09:55:59.060Z,45.80
2023-04-26T09:58:28.506Z,43.60
2023-04-26T10:00:59.640Z,41.70
2023-04-26T10:03:30.395Z,39.70
2023-04-26T10:06:01.422Z,37.60
2023-04-26T10:08:31.511Z,35.70
2023-04-26T10:11:02.461Z,34.90
2023-04-26T10:13:32.578Z,36.80
2023-04-26T10:16:01.985Z,38.30
2023-04-26T10:18:30.566Z,38.80
2023-04-26T10:21:02.901Z,37.10
2023-04-26T10:23:34.742Z,38.60
2023-04-26T10:26:08.742Z,35.50
2023-04-26T10:29:01.940Z,33.90
2023-04-26T10:32:01.916Z,33.80
2023-04-26T10:34:32.260Z,34.10
2023-04-26T10:37:17.315Z,35.10
2023-04-26T10:39:46.474Z,35.00
2023-04-26T10:42:26.529Z,36.50
2023-04-26T10:44:57.254Z,35.90
2023-04-26T10:47:32.382Z,38.70
2023-04-26T10:50:06.776Z,39.00
2023-04-26T10:52:36.550Z,40.60
2023-04-26T10:55:06.378Z,40.70
2023-04-26T10:57:51.690Z,42.20
2023-04-26T11:00:22.106Z,45.00
2023-04-26T11:03:06.364Z,44.50
2023-04-26T11:05:37.470Z,45.10
2023-04-26T11:08:09.108Z,42.80
2023-04-26T11:10:42.388Z,37.70
2023-04-26T11:13:14.048Z,36.00
2023-04-26T11:15:44.988Z,34.50
2023-04-26T11:18:17.534Z,35.90
2023-04-26T11:20:55.225Z,37.70
2023-04-26T11:23:27.959Z,38.30
2023-04-26T11:26:00.399Z,39.60
2023-04-26T11:28:34.245Z,38.00
2023-04-26T11:31:06.009Z,37.20
2023-04-26T11:33:36.954Z,38.80
2023-04-26T11:36:06.895Z,39.40
2023-04-26T11:38:37.464Z,41.30
2023-04-26T11:41:08.691Z,42.70
2023-04-26T11:43:38.933Z,40.30
2023-04-26T11:46:11.559Z,39.50
2023-04-26T11:48:42.083Z,38.40
2023-04-26T11:51:13.890Z,38.70
2023-04-26T11:53:44.707Z,42.50
2023-04-26T11:56:19.042Z,41.60
2023-04-26T11:58:50.557Z,40.70
2023-04-26T12:01:23.476Z,43.50
2023-04-26T12:03:54.802Z,43.90
2023-04-26T12:06:30.480Z,41.90
2023-04-26T12:09:05.594Z,42.40
2023-04-26T12:11:35.279Z,42.60
2023-04-26T12:14:04.931Z,40.20
2023-04-26T12:16:33.039Z,39.70
2023-04-26T12:19:00.950Z,42.20
2023-04-26T12:21:30.851Z,42.30
2023-04-26T12:24:00.269Z,41.10
2023-04-26T12:26:44.617Z,44.10
2023-04-26T12:29:13.927Z,43.50
2023-04-26T12:31:42.566Z,41.50
2023-04-26T12:34:10.772Z,42.10
2023-04-26T12:36:41.998Z,44.00
2023-04-26T12:39:13.288Z,42.30
2023-04-26T12:41:41.831Z,46.50
2023-04-26T12:44:10.449Z,45.10
2023-04-26T12:46:40.495Z,42.80
2023-04-26T12:49:08.521Z,47.00
2023-04-26T12:51:36.613Z,44.90
2023-04-26T12:54:04.975Z,44.60
2023-04-26T12:56:32.919Z,46.50
2023-04-26T12:59:00.956Z,45.10
2023-04-26T13:01:30.211Z,45.30
2023-04-26T13:04:00.664Z,43.90
2023-04-26T13:06:29.409Z,44.10
2023-04-26T13:08:57.502Z,46.20
2023-04-26T13:11:25.646Z,45.40
2023-04-26T13:13:53.683Z,47.10
2023-04-26T13:16:21.911Z,48.00
2023-04-26T13:18:50.029Z,47.80
2023-04-26T13:21:19.194Z,47.50
2023-04-26T13:23:47.275Z,45.80
2023-04-26T13:26:18.023Z,44.40
2023-04-26T13:28:47.674Z,48.20
2023-04-26T13:31:17.187Z,47.70
2023-04-26T13:33:47.292Z,50.20
2023-04-26T13:36:15.776Z,49.20
2023-04-26T13:38:46.847Z,49.10
2023-04-26T13:41:19.419Z,52.90
2023-04-26T13:43:48.969Z,52.40
2023-04-26T13:46:18.394Z,47.80
2023-04-26T13:48:47.517Z,49.80
2023-04-26T13:51:16.416Z,48.60
2023-04-26T13:53:46.425Z,49.90
2023-04-26T13:56:15.784Z,50.70
2023-04-26T13:58:46.451Z,49.60
2023-04-26T14:01:16.568Z,51.50
2023-04-26T14:03:45.271Z,51.90
2023-04-26T14:06:14.524Z,51.40
2023-04-26T14:08:45.719Z,49.80
2023-04-26T14:11:17.538Z,50.40
2023-04-26T14:13:45.535Z,51.80
2023-04-26T14:16:13.417Z,50.90
2023-04-26T14:18:45.223Z,52.80
2023-04-26T14:21:13.105Z,52.70
2023-04-26T14:23:41.438Z,50.10
2023-04-26T14:26:09.573Z,53.70
2023-04-26T14:28:39.161Z,52.80
2023-04-26T14:31:08.599Z,51.80
2023-04-26T14:33:36.841Z,50.80
2023-04-26T14:36:06.661Z,51.00
2023-04-26T14:38:35.880Z,51.70
2023-04-26T14:41:04.292Z,50.00
2023-04-26T14:43:34.866Z,50.60
2023-04-26T14:46:07.964Z,50.20
2023-04-26T14:48:38.565Z,48.90
2023-04-26T14:51:12.673Z,49.70
2023-04-26T14:53:41.438Z,49.10
2023-04-26T14:56:10.749Z,50.20
2023-04-26T14:58:38.919Z,50.50
2023-04-26T15:01:12.415Z,51.20
2023-04-26T15:03:43.266Z,51.50
2023-04-26T15:06:13.799Z,52.40
2023-04-26T15:08:41.680Z,52.60
2023-04-26T15:11:09.504Z,53.40
2023-04-26T15:13:37.613Z,53.20
2023-04-26T15:16:07.867Z,52.70
2023-04-26T15:18:41.047Z,53.20
2023-04-26T15:21:16.687Z,51.00
2023-04-26T15:23:47.931Z,52.30
2023-04-26T15:26:16.234Z,53.70
2023-04-26T15:28:45.420Z,53.10
2023-04-26T15:31:13.291Z,52.60
2023-04-26T15:33:42.599Z,52.60
2023-04-26T15:36:12.647Z,53.00
2023-04-26T15:38:41.775Z,53.10
2023-04-26T15:41:09.508Z,52.40
2023-04-26T15:43:37.402Z,54.30
2023-04-26T15:46:05.506Z,53.70
2023-04-26T15:48:33.322Z,53.30
2023-04-26T15:51:07.252Z,52.10
2023-04-26T15:53:36.361Z,52.30
2023-04-26T15:56:15.537Z,54.40
2023-04-26T15:58:44.955Z,53.10
2023-04-26T16:01:14.836Z,54.40
2023-04-26T16:03:47.473Z,53.90
2023-04-26T16:06:19.615Z,52.50
2023-04-26T16:08:49.151Z,55.50
2023-04-26T16:11:18.527Z,54.50
2023-04-26T16:13:53.233Z,54.90
2023-04-26T16:16:21.018Z,54.70
2023-04-26T16:18:48.898Z,56.00
2023-04-26T16:21:18.171Z,56.00
2023-04-26T16:23:46.247Z,57.00
2023-04-26T16:26:14.819Z,56.60
2023-04-26T16:28:43.051Z,56.00
2023-04-26T16:31:11.626Z,55.40
2023-04-26T16:33:39.680Z,57.20
2023-04-26T16:36:09.200Z,57.10
2023-04-26T16:38:39.144Z,58.40
2023-04-26T16:41:09.122Z,55.50
2023-04-26T16:43:37.216Z,56.00
2023-04-26T16:46:10.632Z,56.40
2023-04-26T16:48:41.241Z,55.80
2023-04-26T16:51:13.132Z,56.30
2023-04-26T16:53:43.289Z,56.40
2023-04-26T16:56:12.974Z,57.00
2023-04-26T16:58:40.767Z,56.70
2023-04-26T17:01:08.840Z,56.80
2023-04-26T17:03:36.805Z,57.60
2023-04-26T17:06:06.596Z,56.90
2023-04-26T17:08:34.647Z,56.70
2023-04-26T17:11:04.359Z,56.50
2023-04-26T17:13:33.332Z,57.30
2023-04-26T17:16:01.729Z,57.80
2023-04-26T17:18:29.530Z,58.20
2023-04-26T17:20:59.974Z,58.30
2023-04-26T17:23:28.075Z,60.60
2023-04-26T17:25:57.613Z,61.20
2023-04-26T17:28:26.865Z,60.40
2023-04-26T17:30:54.782Z,60.10
2023-04-26T17:33:22.812Z,60.70
2023-04-26T17:35:50.912Z,58.70
2023-04-26T17:38:19.397Z,60.50
2023-04-26T17:40:47.204Z,62.20
2023-04-26T17:43:15.000Z,62.70
2023-04-26T17:45:44.093Z,62.10
2023-04-26T17:48:13.060Z,64.70
2023-04-26T17:50:41.433Z,67.10
2023-04-26T17:53:09.352Z,67.50
2023-04-26T17:55:39.022Z,67.40
2023-04-26T17:58:07.141Z,67.80
2023-04-26T18:00:35.314Z,68.90
2023-04-26T18:03:06.900Z,70.90
2023-04-26T18:05:35.597Z,71.50
2023-04-26T18:08:04.084Z,70.90
2023-04-26T18:10:32.106Z,70.00
2023-04-26T18:12:59.985Z,70.70
2023-04-26T18:15:27.958Z,71.30
2023-04-26T18:17:55.745Z,72.70
2023-04-26T18:20:26.013Z,73.10
2023-04-26T18:22:53.790Z,74.40
2023-04-26T18:25:24.088Z,74.90
2023-04-26T18:27:54.446Z,75.60
2023-04-26T18:30:22.333Z,76.80
2023-04-26T18:32:53.532Z,75.80
2023-04-26T18:35:23.505Z,76.20
2023-04-26T18:37:53.249Z,76.90
2023-04-26T18:40:21.665Z,77.30
2023-04-26T18:42:49.639Z,77.30
2023-04-26T18:47:14.146Z,77.60
2023-04-26T18:49:42.210Z,77.30
2023-04-26T18:52:40.093Z,77.20
2023-04-26T18:55:08.639Z,78.00
2023-04-26T18:57:36.792Z,77.80
2023-04-26T19:00:07.912Z,78.70
2023-04-26T19:02:40.065Z,79.00
2023-04-26T19:05:09.551Z,79.70
2023-04-26T19:07:38.727Z,80.20
2023-04-26T19:10:07.550Z,80.60
2023-04-26T19:12:35.547Z,80.30
2023-04-26T19:15:03.836Z,80.20
2023-04-26T19:17:33.301Z,80.60
2023-04-26T19:20:07.354Z,80.70
2023-04-26T19:22:35.988Z,79.80
2023-04-26T19:25:05.056Z,80.60
2023-04-26T19:27:36.613Z,80.10
2023-04-26T19:30:05.618Z,78.70
2023-04-26T19:32:34.241Z,79.90
2023-04-26T19:35:06.165Z,80.10
2023-04-26T19:37:34.397Z,81.30
2023-04-26T19:40:02.870Z,81.70
2023-04-26T19:42:33.183Z,81.80
2023-04-26T19:45:01.432Z,81.60
2023-04-26T19:47:30.994Z,81.70
2023-04-26T19:49:59.450Z,81.80
2023-04-26T19:52:28.974Z,81.20
2023-04-26T19:54:59.841Z,81.20
2023-04-26T19:57:27.726Z,81.40
2023-04-26T19:59:57.483Z,81.60
2023-04-26T20:02:26.373Z,82.20
2023-04-26T20:04:54.435Z,82.50
2023-04-26T20:07:23.019Z,82.30
2023-04-26T20:09:52.388Z,81.90
2023-04-26T20:12:22.020Z,82.40
2023-04-26T20:14:50.544Z,82.50
2023-04-26T20:17:21.782Z,83.00
2023-04-26T20:19:51.633Z,83.00
2023-04-26T20:22:21.200Z,83.00
2023-04-26T20:24:49.413Z,83.20
2023-04-26T20:27:22.777Z,83.00
2023-04-26T20:29:51.288Z,83.00
2023-04-26T20:32:19.272Z,83.40
2023-04-26T20:34:47.971Z,83.00
2023-04-26T20:37:15.857Z,82.50
2023-04-26T20:39:43.529Z,82.40
2023-04-26T20:42:11.256Z,82.20
2023-04-26T20:44:40.250Z,82.60
2023-04-26T20:47:08.678Z,82.60
2023-04-26T20:49:36.492Z,82.60
2023-04-26T20:52:04.697Z,82.60
2023-04-26T20:54:32.629Z,83.30
2023-04-26T20:57:01.510Z,83.70
2023-04-26T20:59:29.347Z,84.10
2023-04-26T21:01:58.442Z,83.50
2023-04-26T21:04:26.402Z,82.90
2023-04-26T21:06:54.188Z,82.70
2023-04-26T21:09:21.863Z,82.60
2023-04-26T21:11:49.518Z,83.10
2023-04-26T21:14:17.552Z,83.60
2023-04-26T21:16:45.308Z,83.80
2023-04-26T21:19:14.335Z,84.20
2023-04-26T21:21:42.097Z,84.50
2023-04-26T21:24:09.766Z,84.60
2023-04-26T21:26:37.452Z,84.70
2023-04-26T21:29:05.146Z,84.90
2023-04-26T21:31:32.963Z,84.40
2023-04-26T21:34:00.772Z,84.60
2023-04-26T21:36:32.687Z,84.60
2023-04-26T21:39:02.136Z,84.50
2023-04-26T21:41:29.882Z,84.40
2023-04-26T21:43:58.784Z,84.60
2023-04-26T21:46:27.001Z,84.20
2023-04-26T21:48:54.776Z,84.40
2023-04-26T21:51:22.468Z,84.10
2023-04-26T21:53:51.549Z,84.90
2023-04-26T21:56:19.312Z,84.90
2023-04-26T21:58:48.504Z,84.60
2023-04-26T22:01:16.684Z,85.00
2023-04-26T22:03:44.721Z,85.30
2023-04-26T22:06:12.645Z,85.40
2023-04-26T22:08:41.120Z,85.40
2023-04-26T22:11:10.114Z,85.60
2023-04-26T22:13:37.921Z,85.70
2023-04-26T22:16:06.230Z,85.80
2023-04-26T22:18:35.286Z,84.90
2023-04-26T22:21:03.048Z,85.20
2023-04-26T22:23:32.009Z,85.40
2023-04-26T22:26:00.533Z,86.10
2023-04-26T22:28:29.562Z,86.60
2023-04-26T22:30:57.375Z,86.60
2023-04-26T22:33:25.059Z,86.60
2023-04-26T22:35:57.368Z,86.40
2023-04-26T22:38:25.400Z,86.40
2023-04-26T22:40:53.162Z,86.60
2023-04-26T22:43:20.813Z,86.80
2023-04-26T22:45:49.910Z,86.60
2023-04-26T22:48:18.757Z,86.60
2023-04-26T22:50:49.388Z,86.40
2023-04-26T22:53:17.429Z,86.50
2023-04-26T22:55:45.293Z,86.80
2023-04-26T22:58:13.569Z,86.80
2023-04-26T23:00:41.361Z,87.10
2023-04-26T23:03:10.872Z,86.50
2023-04-26T23:05:39.221Z,86.60
2023-04-26T23:08:07.234Z,86.90
2023-04-26T23:10:34.918Z,86.40
2023-04-26T23:13:03.654Z,86.40
2023-04-26T23:15:32.860Z,85.40
2023-04-26T23:18:00.912Z,85.70
2023-04-26T23:20:29.989Z,86.00
2023-04-26T23:22:57.762Z,85.70
2023-04-26T23:25:25.443Z,86.00
2023-04-26T23:27:53.164Z,86.50
2023-04-26T23:30:21.092Z,86.50
2023-04-26T23:32:48.875Z,85.90
2023-04-26T23:35:16.771Z,86.10
2023-04-26T23:37:45.916Z,86.20
2023-04-26T23:40:14.358Z,85.90
2023-04-26T23:42:42.003Z,85.40
2023-04-26T23:45:10.817Z,85.70
2023-04-26T23:47:38.618Z,86.00
2023-04-26T23:50:07.299Z,86.20
2023-04-26T23:52:35.072Z,86.20
2023-04-26T23:55:04.290Z,86.10
2023-04-26T23:57:32.074Z,85.50
